Time;durP1;ratioP1;P1;durP2;ratioP2;P2;SDS_P1;SDS_P2;PMS_P1;PMS_P2;Temp;Humidity;BMP_temperature;BMP_pressure;BME280_temperature;BME280_humidity;BME280_pressure;Samples;Min_cycle;Max_cycle;Signal;HPM_P1;HPM_P2
2022/06/07 00:00:19;;;;;;;30.10;12.32;;;;;;;11.82;100.00;100824.25;5023770;28;20033;-74
2022/06/07 00:02:45;;;;;;;31.75;11.18;;;;;;;11.83;100.00;100823.25;5010284;28;20761;-74
2022/06/07 00:05:11;;;;;;;33.22;10.85;;;;;;;11.82;100.00;100820.72;5010621;28;20033;-74
2022/06/07 00:07:37;;;;;;;34.15;13.23;;;;;;;11.81;100.00;100817.19;5009823;28;20632;-73
2022/06/07 00:10:04;;;;;;;31.75;12.73;;;;;;;11.79;100.00;100810.31;4992834;28;20044;-74
2022/06/07 00:12:30;;;;;;;34.78;12.55;;;;;;;11.80;100.00;100807.47;4995599;28;20563;-73
2022/06/07 00:14:55;;;;;;;31.35;11.88;;;;;;;11.81;100.00;100808.28;4993230;28;20037;-73
2022/06/07 00:17:22;;;;;;;32.70;12.20;;;;;;;11.82;100.00;100821.56;5019366;28;20372;-73
2022/06/07 00:19:48;;;;;;;30.10;11.90;;;;;;;11.83;100.00;100811.66;4995545;28;20048;-74
2022/06/07 00:22:13;;;;;;;30.17;11.13;;;;;;;11.79;100.00;100797.69;5006492;28;20372;-74
2022/06/07 00:24:39;;;;;;;34.35;12.85;;;;;;;11.75;100.00;100788.31;5019229;28;20041;-73
2022/06/07 00:27:05;;;;;;;34.80;13.80;;;;;;;11.86;100.00;100806.75;5011345;28;20041;-73
2022/06/07 00:29:30;;;;;;;36.08;13.02;;;;;;;11.88;100.00;100809.25;5024027;28;20538;-73
2022/06/07 00:31:56;;;;;;;32.05;13.57;;;;;;;11.89;100.00;100800.16;5021340;28;20041;-73
2022/06/07 00:34:23;;;;;;;35.80;13.45;;;;;;;11.90;100.00;100799.13;4989531;28;20041;-74
2022/06/07 00:36:49;;;;;;;29.10;11.60;;;;;;;11.89;100.00;100786.69;4998074;28;20471;-74
2022/06/07 00:39:15;;;;;;;45.25;15.02;;;;;;;11.96;100.00;100795.72;4998329;28;20040;-75
2022/06/07 00:41:41;;;;;;;31.25;12.43;;;;;;;11.93;100.00;100790.66;5007913;28;20029;-74
2022/06/07 00:44:21;;;;;;;31.98;12.30;;;;;;;11.95;100.00;100790.50;4992749;28;20033;-74
2022/06/07 00:46:48;;;;;;;26.85;11.52;;;;;;;11.94;100.00;100795.06;5006393;28;20087;-74
2022/06/07 00:49:18;;;;;;;28.98;11.98;;;;;;;11.94;100.00;100788.84;5022789;28;20060;-74
2022/06/07 00:51:45;;;;;;;30.25;11.35;;;;;;;11.88;100.00;100776.91;4987906;28;20038;-73
2022/06/07 00:54:18;;;;;;;33.35;12.07;;;;;;;11.88;100.00;100785.84;5004205;28;20041;-74
2022/06/07 00:56:43;;;;;;;35.08;12.27;;;;;;;11.79;100.00;100765.34;4991368;28;20069;-73
2022/06/07 00:59:09;;;;;;;26.73;11.68;;;;;;;11.85;100.00;100775.41;4994201;28;20073;-75
2022/06/07 01:01:35;;;;;;;30.90;10.82;;;;;;;11.86;100.00;100776.28;4991863;28;20032;-73
2022/06/07 01:04:00;;;;;;;30.77;12.20;;;;;;;11.83;100.00;100771.22;5020728;28;20393;-74
2022/06/07 01:11:54;;;;;;;30.55;12.20;;;;;;;11.78;100.00;100770.94;5021525;28;20578;-74
2022/06/07 01:14:20;;;;;;;29.17;11.18;;;;;;;11.76;100.00;100765.72;4984433;28;20034;-74
2022/06/07 01:16:46;;;;;;;37.92;11.85;;;;;;;11.78;100.00;100766.38;5004004;28;20127;-74
2022/06/07 01:19:12;;;;;;;27.17;12.02;;;;;;;11.76;100.00;100764.91;5014405;28;20040;-74
2022/06/07 01:21:40;;;;;;;28.13;11.38;;;;;;;11.75;100.00;100760.50;5003017;28;20076;-75
2022/06/07 01:24:06;;;;;;;29.40;11.27;;;;;;;11.74;100.00;100756.16;4989610;28;20513;-75
2022/06/07 01:26:32;;;;;;;29.73;12.38;;;;;;;11.77;100.00;100759.31;5016511;28;20033;-74
2022/06/07 01:28:57;;;;;;;33.58;13.02;;;;;;;11.75;100.00;100757.81;5019155;28;20040;-74
2022/06/07 01:31:23;;;;;;;30.90;12.07;;;;;;;11.76;100.00;100754.94;5017951;28;20044;-74
2022/06/07 01:33:48;;;;;;;26.77;12.15;;;;;;;11.76;100.00;100749.56;5005060;28;20372;-74
2022/06/07 01:36:16;;;;;;;34.22;12.85;;;;;;;11.77;100.00;100755.78;5018791;28;20060;-74
2022/06/07 01:38:43;;;;;;;36.35;13.43;;;;;;;11.77;100.00;100756.63;4987482;28;20034;-74
2022/06/07 01:43:55;;;;;;;29.80;11.75;;;;;;;11.74;100.00;100745.38;5025824;28;20041;-73
2022/06/07 01:46:21;;;;;;;29.92;11.75;;;;;;;11.77;100.00;100745.00;5009063;28;20739;-74
2022/06/07 01:48:48;;;;;;;31.20;13.68;;;;;;;11.76;100.00;100743.34;5027968;28;20462;-75
2022/06/07 01:51:14;;;;;;;30.75;13.70;;;;;;;11.72;100.00;100734.78;5023622;28;20033;-74
2022/06/07 01:53:40;;;;;;;30.88;14.27;;;;;;;11.73;100.00;100736.47;5021134;28;20041;-74
2022/06/07 01:56:10;;;;;;;29.88;14.55;;;;;;;11.73;100.00;100730.25;4995622;28;20103;-73
2022/06/07 01:58:38;;;;;;;31.60;13.38;;;;;;;11.69;100.00;100731.63;5030026;28;20116;-73
2022/06/07 02:01:04;;;;;;;32.03;13.90;;;;;;;11.65;100.00;100726.63;5025775;28;20033;-74
2022/06/07 02:03:30;;;;;;;31.52;12.90;;;;;;;11.60;100.00;100712.03;5020200;28;20131;-74
2022/06/07 02:06:08;;;;;;;30.27;14.60;;;;;;;11.55;100.00;100720.66;5007650;28;20074;-73
2022/06/07 02:08:37;;;;;;;30.27;14.50;;;;;;;11.53;100.00;100722.69;5023771;28;20029;-74
2022/06/07 02:11:06;;;;;;;28.13;11.52;;;;;;;11.51;100.00;100721.19;5010441;28;20061;-74
2022/06/07 02:13:32;;;;;;;30.98;13.70;;;;;;;11.49;100.00;100716.00;4992223;28;20070;-73
2022/06/07 02:15:57;;;;;;;34.03;14.68;;;;;;;11.46;100.00;100716.38;5006630;28;20037;-74
2022/06/07 02:18:23;;;;;;;31.50;14.25;;;;;;;11.43;100.00;100709.50;5026408;28;20102;-74
2022/06/07 02:20:49;;;;;;;34.03;13.68;;;;;;;11.40;100.00;100709.84;5009386;28;20032;-74
2022/06/07 02:23:14;;;;;;;32.33;13.85;;;;;;;11.39;100.00;100705.47;5011377;28;20036;-74
2022/06/07 02:25:49;;;;;;;33.72;14.90;;;;;;;11.37;100.00;100702.13;5020902;28;20044;-74
2022/06/07 02:28:18;;;;;;;32.75;13.50;;;;;;;11.37;100.00;100702.13;5026088;28;20021;-74
2022/06/07 02:30:45;;;;;;;29.15;14.70;;;;;;;11.35;100.00;100706.88;5007670;28;20109;-73
2022/06/07 02:33:11;;;;;;;31.23;13.45;;;;;;;11.28;100.00;100687.09;5023549;28;20053;-74
2022/06/07 02:35:40;;;;;;;30.77;13.95;;;;;;;11.35;100.00;100693.44;5014615;28;20061;-75
2022/06/07 02:38:06;;;;;;;30.83;13.80;;;;;;;11.23;100.00;100676.03;5001910;28;20039;-74
2022/06/07 02:40:32;;;;;;;36.13;14.75;;;;;;;11.33;100.00;100694.63;5024660;28;20030;-74
2022/06/07 02:42:57;;;;;;;34.20;14.70;;;;;;;11.24;100.00;100680.38;5008666;28;20433;-74
2022/06/07 02:45:23;;;;;;;34.17;14.90;;;;;;;11.28;100.00;100689.78;5008828;28;20025;-74
2022/06/07 02:47:49;;;;;;;42.80;15.50;;;;;;;11.28;100.00;100700.53;5022923;28;20040;-74
2022/06/07 02:50:15;;;;;;;38.85;15.98;;;;;;;11.23;100.00;100694.88;4990912;28;20034;-74
2022/06/07 02:52:40;;;;;;;35.78;15.07;;;;;;;11.22;100.00;100688.66;5023875;28;20468;-74
2022/06/07 02:55:06;;;;;;;33.80;13.70;;;;;;;11.18;100.00;100678.44;5022207;28;20503;-73
2022/06/07 02:57:32;;;;;;;34.78;15.13;;;;;;;11.19;100.00;100691.72;4993681;28;20048;-73
2022/06/07 02:59:58;;;;;;;38.55;14.98;;;;;;;11.15;100.00;100685.00;5002934;28;20030;-74
2022/06/07 03:02:23;;;;;;;36.40;16.00;;;;;;;11.14;100.00;100683.34;4995360;28;20037;-74
2022/06/07 03:04:49;;;;;;;35.15;14.70;;;;;;;11.12;100.00;100679.16;4996377;28;20038;-74
2022/06/07 03:07:14;;;;;;;37.38;15.63;;;;;;;11.07;100.00;100673.47;4992270;28;20122;-73
2022/06/07 03:09:40;;;;;;;34.70;14.48;;;;;;;11.05;100.00;100670.13;5023760;28;20029;-74
2022/06/07 03:12:06;;;;;;;38.83;14.80;;;;;;;11.03;100.00;100664.09;5009438;28;20497;-74
2022/06/07 03:14:32;;;;;;;37.53;15.45;;;;;;;10.93;100.00;100665.19;4986063;28;20041;-73
2022/06/07 03:16:57;;;;;;;40.67;15.80;;;;;;;10.90;100.00;100668.25;5008269;28;20511;-74
2022/06/07 03:19:23;;;;;;;33.47;14.23;;;;;;;10.81;100.00;100666.63;5018427;28;20026;-74
2022/06/07 03:21:49;;;;;;;42.13;15.13;;;;;;;10.75;100.00;100670.03;5017500;28;20137;-73
2022/06/07 03:24:14;;;;;;;34.45;14.40;;;;;;;10.70;100.00;100669.72;5007396;28;20041;-75
2022/06/07 03:26:40;;;;;;;32.30;13.88;;;;;;;10.58;100.00;100658.53;4987172;28;20068;-73
2022/06/07 03:29:06;;;;;;;35.70;14.95;;;;;;;10.59;100.00;100665.59;5021073;28;20038;-73
2022/06/07 03:31:31;;;;;;;34.85;15.18;;;;;;;10.59;100.00;100670.16;4992633;28;20029;-74
2022/06/07 03:33:57;;;;;;;37.83;15.25;;;;;;;10.56;100.00;100665.97;5023896;28;20038;-73
2022/06/07 03:36:25;;;;;;;38.25;14.40;;;;;;;10.54;100.00;100674.19;5008895;28;20048;-74
2022/06/07 03:38:52;;;;;;;33.05;12.88;;;;;;;10.45;100.00;100655.59;4998474;28;20124;-74
2022/06/07 03:41:23;;;;;;;32.38;14.43;;;;;;;10.56;100.00;100668.66;5000865;28;20050;-74
2022/06/07 03:43:50;;;;;;;28.38;13.57;;;;;;;10.58;100.00;100671.97;5024511;28;20064;-75
2022/06/07 03:46:21;;;;;;;35.80;15.77;;;;;;;10.59;100.00;100664.78;4993316;28;20072;-73
2022/06/07 03:48:47;;;;;;;42.00;16.70;;;;;;;10.59;100.00;100660.22;5009901;28;20499;-73
2022/06/07 03:51:14;;;;;;;37.70;15.75;;;;;;;10.63;100.00;100668.75;4991848;28;20061;-73
2022/06/07 03:53:41;;;;;;;39.95;14.95;;;;;;;10.54;100.00;100650.00;5025994;28;20034;-74
2022/06/07 03:56:07;;;;;;;37.22;16.60;;;;;;;10.62;100.00;100670.63;5004359;28;20034;-73
2022/06/07 03:58:34;;;;;;;32.65;14.18;;;;;;;10.64;100.00;100665.91;5006237;28;20029;-74
2022/06/07 04:01:01;;;;;;;36.33;14.52;;;;;;;10.65;100.00;100664.03;5025133;28;20022;-74
2022/06/07 04:03:28;;;;;;;36.33;13.32;;;;;;;10.63;100.00;100664.22;5007535;28;20562;-74
2022/06/07 04:05:54;;;;;;;33.50;12.80;;;;;;;10.62;100.00;100669.78;5010855;28;20103;-73
2022/06/07 04:08:20;;;;;;;39.10;14.43;;;;;;;10.63;100.00;100658.00;5008775;28;20115;-74
2022/06/07 04:10:49;;;;;;;30.60;14.00;;;;;;;10.61;100.00;100660.03;5008776;28;20549;-74
2022/06/07 04:13:16;;;;;;;31.35;13.75;;;;;;;10.59;100.00;100657.53;4985289;28;20068;-74
2022/06/07 04:15:42;;;;;;;31.92;12.98;;;;;;;10.58;100.00;100669.28;5008005;28;20068;-74
2022/06/07 04:18:11;;;;;;;35.25;15.57;;;;;;;10.54;100.00;100658.06;5011430;28;20121;-74
2022/06/07 04:20:37;;;;;;;38.80;14.85;;;;;;;10.60;100.00;100664.56;5054615;28;20038;-73
2022/06/07 04:23:04;;;;;;;34.35;14.23;;;;;;;10.59;100.00;100670.16;5025223;28;20045;-75
2022/06/07 04:25:29;;;;;;;36.90;15.68;;;;;;;10.62;100.00;100667.09;5004041;28;20037;-75
2022/06/07 04:27:55;;;;;;;32.13;14.18;;;;;;;10.65;100.00;100664.03;4990163;28;20045;-75
2022/06/07 04:30:21;;;;;;;28.75;12.98;;;;;;;10.63;100.00;100666.06;4991819;28;20025;-75
2022/06/07 04:32:47;;;;;;;30.50;14.43;;;;;;;10.57;100.00;100657.69;5025137;28;20033;-74
2022/06/07 04:35:17;;;;;;;33.67;13.25;;;;;;;10.59;100.00;100660.22;5002388;28;20049;-74
2022/06/07 04:37:45;;;;;;;33.65;13.90;;;;;;;10.56;100.00;100658.72;5018279;28;20043;-75
2022/06/07 04:40:10;;;;;;;33.28;12.68;;;;;;;10.46;100.00;100649.22;5020239;28;20041;-75
2022/06/07 04:42:39;;;;;;;35.20;15.40;;;;;;;10.52;100.00;100654.72;4984625;28;20037;-75
2022/06/07 04:45:06;;;;;;;36.47;14.40;;;;;;;10.50;100.00;100656.72;5022325;28;20472;-74
2022/06/07 04:47:33;;;;;;;34.88;14.80;;;;;;;10.49;100.00;100663.13;5027993;28;20034;-74
2022/06/07 04:49:58;;;;;;;38.55;15.57;;;;;;;10.46;100.00;100652.75;5007107;28;20482;-75
2022/06/07 04:52:24;;;;;;;34.70;14.77;;;;;;;10.41;100.00;100647.06;4985808;28;20049;-74
2022/06/07 04:54:50;;;;;;;30.33;12.65;;;;;;;10.38;100.00;100647.41;5020691;28;20398;-74
2022/06/07 04:57:15;;;;;;;37.50;14.73;;;;;;;10.39;100.00;100646.41;5017521;28;20045;-74
2022/06/07 04:59:41;;;;;;;32.58;14.52;;;;;;;10.37;100.00;100629.59;4997835;28;20546;-74
2022/06/07 05:02:06;;;;;;;32.50;14.60;;;;;;;10.29;100.00;100627.81;5017719;28;20189;-74
2022/06/07 05:04:32;;;;;;;29.10;13.95;;;;;;;10.25;100.00;100623.78;5006560;28;20037;-73
2022/06/07 05:06:57;;;;;;;38.65;14.80;;;;;;;10.19;100.00;100618.25;5024572;28;20048;-74
2022/06/07 05:09:24;;;;;;;33.95;13.68;;;;;;;10.18;100.00;100620.09;5020659;28;20501;-74
2022/06/07 05:11:52;;;;;;;36.95;14.27;;;;;;;10.21;100.00;100624.28;5009158;28;20080;-74
2022/06/07 05:14:18;;;;;;;33.58;14.38;;;;;;;10.28;100.00;100617.25;5018534;28;20022;-74
2022/06/07 05:16:44;;;;;;;41.65;14.57;;;;;;;10.40;100.00;100623.03;5025008;28;20063;-74
2022/06/07 05:19:11;;;;;;;34.67;14.02;;;;;;;10.48;100.00;100623.00;5003534;28;20483;-75
2022/06/07 05:21:37;;;;;;;39.75;14.32;;;;;;;10.53;100.00;100618.75;5015029;28;20033;-74
2022/06/07 05:24:03;;;;;;;36.83;12.82;;;;;;;10.63;100.00;100623.88;5026375;28;20116;-74
2022/06/07 05:26:53;;;;;;;39.75;15.77;;;;;;;10.72;100.00;100627.38;5007898;28;20088;-75
2022/06/07 05:29:28;;;;;;;39.70;15.07;;;;;;;11.29;100.00;100629.53;5000814;28;20044;-74
2022/06/07 05:31:55;;;;;;;38.80;15.57;;;;;;;12.20;100.00;100630.19;5021987;28;20144;-73
2022/06/07 05:34:20;;;;;;;37.28;15.93;;;;;;;13.36;100.00;100616.50;4999865;28;20403;-74
2022/06/07 05:36:46;;;;;;;36.47;16.25;;;;;;;14.33;100.00;100629.06;5000076;28;20037;-75
2022/06/07 05:39:23;;;;;;;29.33;13.40;;;;;;;14.37;100.00;100622.22;4986909;28;20045;-74
2022/06/07 05:41:49;;;;;;;27.38;12.13;;;;;;;13.74;100.00;100626.94;5004808;28;20030;-74
2022/06/07 05:44:16;;;;;;;27.20;13.32;;;;;;;14.60;100.00;100629.97;4991504;28;20088;-73
2022/06/07 05:46:42;;;;;;;25.92;12.98;;;;;;;15.71;100.00;100620.38;5023165;28;20033;-74
2022/06/07 05:49:09;;;;;;;27.08;12.75;;;;;;;16.57;99.03;100624.59;5024055;28;20037;-74
2022/06/07 05:51:36;;;;;;;26.58;13.43;;;;;;;17.12;96.52;100633.81;5023888;28;20029;-74
2022/06/07 05:54:01;;;;;;;20.17;11.68;;;;;;;17.47;93.76;100629.72;5023013;28;20045;-73
2022/06/07 05:56:27;;;;;;;17.85;10.77;;;;;;;17.43;94.27;100632.03;5024941;28;20041;-73
2022/06/07 05:58:52;;;;;;;20.17;10.75;;;;;;;17.28;93.74;100626.13;4989973;28;20393;-74
2022/06/07 06:01:18;;;;;;;20.70;10.48;;;;;;;15.88;99.59;100628.84;5004207;28;20064;-74
2022/06/07 06:03:44;;;;;;;18.42;10.68;;;;;;;14.91;100.00;100626.69;5000665;28;20340;-74
2022/06/07 06:06:11;;;;;;;19.85;10.98;;;;;;;14.30;100.00;100626.75;5015641;28;20040;-74
2022/06/07 06:11:23;;;;;;;20.40;10.85;;;;;;;13.69;100.00;100627.53;5026299;28;20117;-74
2022/06/07 06:13:49;;;;;;;20.08;12.18;;;;;;;13.61;100.00;100631.22;5009146;28;20120;-73
2022/06/07 06:16:18;;;;;;;23.85;11.23;;;;;;;13.56;100.00;100630.16;5023208;28;20041;-73
2022/06/07 06:18:49;;;;;;;21.20;11.13;;;;;;;13.53;100.00;100631.38;4992062;28;20419;-73
2022/06/07 06:21:16;;;;;;;20.63;11.25;;;;;;;13.89;100.00;100634.91;5021048;28;20033;-74
2022/06/07 06:23:43;;;;;;;22.52;10.98;;;;;;;13.84;100.00;100636.34;5021385;28;20040;-74
2022/06/07 06:26:10;;;;;;;21.10;10.48;;;;;;;13.74;100.00;100630.47;5024781;28;20033;-73
2022/06/07 06:28:37;;;;;;;26.52;12.57;;;;;;;13.68;100.00;100633.13;5004920;28;20021;-74
2022/06/07 06:31:05;;;;;;;22.50;11.05;;;;;;;13.63;100.00;100634.56;5010779;28;20037;-73
2022/06/07 06:33:38;;;;;;;20.65;10.82;;;;;;;13.71;100.00;100622.78;5001709;28;20479;-73
2022/06/07 06:36:06;;;;;;;20.05;10.70;;;;;;;13.78;100.00;100623.63;5026537;28;20120;-73
2022/06/07 06:38:32;;;;;;;23.77;12.07;;;;;;;14.06;100.00;100617.31;4999967;28;20068;-73
2022/06/07 06:40:59;;;;;;;21.60;11.18;;;;;;;15.19;100.00;100620.25;4992476;28;20041;-74
2022/06/07 06:43:27;;;;;;;20.85;10.95;;;;;;;16.99;99.29;100631.19;5013572;28;20483;-73
2022/06/07 06:46:02;;;;;;;20.60;10.23;;;;;;;17.07;97.52;100635.53;4996693;28;20534;-73
2022/06/07 06:48:35;;;;;;;21.02;10.40;;;;;;;16.43;100.00;100634.66;4998061;28;20045;-74
2022/06/07 06:51:05;;;;;;;18.58;10.05;;;;;;;15.76;100.00;100607.00;4996810;28;20053;-74
2022/06/07 06:53:32;;;;;;;19.17;10.23;;;;;;;15.47;100.00;100638.94;4992573;28;20033;-74
2022/06/07 06:55:58;;;;;;;20.58;11.13;;;;;;;15.15;100.00;100627.09;4993307;28;20048;-74
2022/06/07 06:58:26;;;;;;;25.70;11.85;;;;;;;14.95;100.00;100632.50;5003614;28;20042;-73
2022/06/07 07:01:05;;;;;;;19.75;10.93;;;;;;;14.93;100.00;100634.59;5012425;28;20025;-74
2022/06/07 07:03:31;;;;;;;21.58;11.18;;;;;;;14.86;100.00;100621.06;5014264;28;20029;-73
2022/06/07 07:05:57;;;;;;;22.90;11.02;;;;;;;14.95;100.00;100627.09;5019527;28;20407;-73
2022/06/07 07:08:27;;;;;;;16.27;10.27;;;;;;;14.90;100.00;100629.63;5010087;28;20037;-74
2022/06/07 07:11:23;;;;;;;17.77;10.68;;;;;;;15.05;100.00;100632.09;5022505;28;20502;-73
2022/06/07 07:13:50;;;;;;;17.67;10.27;;;;;;;15.16;100.00;100626.91;5018619;28;20044;-74
2022/06/07 07:16:19;;;;;;;22.58;10.95;;;;;;;15.20;100.00;100621.06;5022043;28;20396;-73
2022/06/07 07:18:46;;;;;;;19.33;10.73;;;;;;;15.22;100.00;100617.09;5022555;28;20519;-73
2022/06/07 07:21:15;;;;;;;18.40;10.35;;;;;;;15.31;100.00;100620.41;5010036;28;20103;-73
2022/06/07 07:23:40;;;;;;;16.75;9.70;;;;;;;15.43;100.00;100615.19;5018581;28;20071;-73
2022/06/07 07:26:08;;;;;;;17.67;9.27;;;;;;;15.44;100.00;100611.44;4988514;28;20064;-73
2022/06/07 07:28:35;;;;;;;19.98;10.27;;;;;;;15.50;100.00;100603.28;4978411;28;20087;-74
2022/06/07 07:31:03;;;;;;;19.45;10.52;;;;;;;15.80;100.00;100617.22;5026105;28;20495;-74
2022/06/07 07:33:29;;;;;;;19.23;10.15;;;;;;;16.11;100.00;100620.22;5008219;28;20037;-74
2022/06/07 07:35:55;;;;;;;22.42;10.82;;;;;;;16.34;98.67;100608.84;5024437;28;20052;-73
2022/06/07 07:38:21;;;;;;;20.58;10.90;;;;;;;16.59;97.03;100598.88;5060963;28;20033;-73
2022/06/07 07:40:46;;;;;;;20.00;10.55;;;;;;;17.15;95.13;100605.38;5038994;28;20029;-73
2022/06/07 07:43:13;;;;;;;20.23;10.68;;;;;;;17.21;93.17;100609.06;5025039;28;20040;-74
2022/06/07 07:45:38;;;;;;;19.23;9.50;;;;;;;17.03;93.47;100613.38;4992900;28;20040;-73
2022/06/07 07:48:04;;;;;;;14.40;9.00;;;;;;;16.69;94.56;100610.06;5009497;28;20037;-73
2022/06/07 07:50:30;;;;;;;19.55;9.70;;;;;;;16.65;96.05;100610.75;5023926;28;20045;-73
2022/06/07 07:52:59;;;;;;;16.77;9.93;;;;;;;16.61;96.18;100607.63;5003960;28;20379;-74
2022/06/07 07:55:25;;;;;;;19.85;10.50;;;;;;;16.56;96.84;100599.28;5009736;28;20128;-73
2022/06/07 07:57:51;;;;;;;16.45;8.57;;;;;;;16.49;89.97;100595.81;4991780;28;20368;-72
2022/06/07 08:00:17;;;;;;;13.75;7.47;;;;;;;16.46;90.81;100579.97;4990355;28;20071;-72
2022/06/07 08:02:47;;;;;;;22.35;10.95;;;;;;;17.19;91.64;100578.56;5017212;28;20041;-74
2022/06/07 08:05:15;;;;;;;15.23;8.85;;;;;;;18.34;86.89;100569.69;4994895;28;20442;-73
2022/06/07 08:07:41;;;;;;;15.88;9.35;;;;;;;20.39;78.74;100575.94;5011291;28;20072;-74
2022/06/07 08:10:07;;;;;;;13.32;8.80;;;;;;;23.01;71.00;100561.06;4993810;28;20088;-73
2022/06/07 08:12:33;;;;;;;15.13;8.05;;;;;;;26.21;60.11;100573.75;5008327;28;20037;-74
2022/06/07 08:14:59;;;;;;;12.38;7.97;;;;;;;27.93;53.08;100564.16;5011147;28;20041;-74
2022/06/07 08:17:26;;;;;;;10.55;6.82;;;;;;;28.17;47.06;100530.09;4994807;28;20475;-73
2022/06/07 08:19:52;;;;;;;9.43;6.90;;;;;;;28.03;50.41;100539.16;4987329;28;20749;-74
2022/06/07 08:22:35;;;;;;;10.80;7.28;;;;;;;27.82;48.45;100533.06;4998677;28;20038;-72
2022/06/07 08:25:03;;;;;;;7.65;6.13;;;;;;;27.15;49.95;100533.00;5040252;28;20038;-73
2022/06/07 08:27:29;;;;;;;11.18;6.68;;;;;;;26.86;53.72;100521.97;4990681;28;20535;-72
2022/06/07 08:29:54;;;;;;;8.43;6.30;;;;;;;27.12;51.64;100503.19;5003799;28;20473;-73
2022/06/07 08:32:20;;;;;;;8.18;6.10;;;;;;;26.19;53.63;100499.59;5005992;28;20029;-72
2022/06/07 08:37:33;;;;;;;7.90;7.05;;;;;;;26.43;50.98;100487.84;4999119;28;20021;-74
2022/06/07 08:39:59;;;;;;;10.55;6.95;;;;;;;26.63;52.71;100495.16;4991662;28;20370;-74
2022/06/07 08:42:28;;;;;;;10.95;7.15;;;;;;;26.68;50.43;100500.63;5029919;28;20471;-75
2022/06/07 08:45:22;;;;;;;12.45;7.50;;;;;;;26.72;50.98;100488.72;5011790;28;20029;-74
2022/06/07 08:47:51;;;;;;;10.77;7.82;;;;;;;26.86;51.16;100499.91;5040644;28;20041;-74
2022/06/07 08:50:21;;;;;;;12.38;8.20;;;;;;;27.09;50.57;100486.41;5008959;28;20026;-73
2022/06/07 08:52:50;;;;;;;10.27;7.90;;;;;;;27.23;48.39;100497.59;5009160;28;20398;-76
2022/06/07 08:55:26;;;;;;;17.58;12.38;;;;;;;27.35;45.94;100501.59;5006872;28;20030;-75
2022/06/07 08:58:00;;;;;;;8.55;7.03;;;;;;;27.79;42.56;100513.50;5026110;28;20036;-74
2022/06/07 09:00:29;;;;;;;9.40;6.25;;;;;;;28.33;40.14;100498.34;5022623;28;20107;-75
2022/06/07 09:03:25;;;;;;;13.95;10.75;;;;;;;28.40;38.57;100496.00;5033227;28;20040;-75
2022/06/07 09:05:53;;;;;;;8.93;6.50;;;;;;;29.24;37.81;100502.56;5010764;28;20061;-75
2022/06/07 09:08:18;;;;;;;10.00;6.28;;;;;;;27.87;38.76;100487.16;4996704;28;20037;-74
2022/06/07 09:13:34;;;;;;;8.52;6.57;;;;;;;25.18;44.15;100472.28;5010011;28;20201;-74
2022/06/07 09:16:00;;;;;;;8.98;6.25;;;;;;;23.00;48.07;100444.25;5007569;28;20029;-77
2022/06/07 09:18:30;;;;;;;9.73;7.90;;;;;;;22.08;51.62;100458.03;4994643;28;20484;-75
2022/06/07 09:21:08;;;;;;;11.50;8.30;;;;;;;21.44;55.19;100458.72;5012316;28;20037;-75
2022/06/07 09:23:43;;;;;;;12.90;9.45;;;;;;;23.52;51.28;100446.09;4996373;28;20487;-77
2022/06/07 09:26:15;;;;;;;7.97;5.85;;;;;;;25.62;43.40;100460.53;5027591;28;20037;-75
2022/06/07 09:28:41;;;;;;;8.63;6.45;;;;;;;24.28;45.94;100452.84;5012250;28;20025;-77
2022/06/07 09:31:12;;;;;;;9.98;7.53;;;;;;;22.83;49.29;100449.84;5005950;28;20506;-75
2022/06/07 09:33:51;;;;;;;8.68;7.35;;;;;;;22.00;52.32;100453.03;5014465;28;20040;-77
2022/06/07 09:36:38;;;;;;;10.38;7.28;;;;;;;21.84;52.79;100443.00;4998820;28;20072;-76
2022/06/07 09:39:19;;;;;;;9.85;6.60;;;;;;;21.86;53.49;100443.59;5028373;28;20490;-76
2022/06/07 09:41:52;;;;;;;10.98;5.60;;;;;;;22.46;51.49;100449.88;5045879;28;20072;-75
2022/06/07 09:44:30;;;;;;;14.35;9.07;;;;;;;24.62;47.01;100433.91;5005988;28;20109;-76
2022/06/07 09:47:02;;;;;;;12.07;9.00;;;;;;;27.74;40.54;100438.97;5008030;28;20379;-75
2022/06/07 09:50:16;;;;;;;7.85;6.72;;;;;;;28.77;36.84;100438.97;5031226;28;20487;-75
2022/06/07 09:52:55;;;;;;;6.38;5.22;;;;;;;29.46;35.44;100435.41;5012111;28;20026;-76
2022/06/07 09:55:35;;;;;;;9.02;6.10;;;;;;;26.98;38.16;100422.25;5010263;28;20029;-75
2022/06/07 09:58:43;;;;;;;8.25;5.80;;;;;;;24.28;44.68;100406.16;5025074;28;20476;-74
2022/06/07 10:01:25;;;;;;;7.82;5.38;;;;;;;25.40;42.73;100391.28;5000315;28;20446;-74
2022/06/07 10:03:59;;;;;;;;;;;;;;;28.21;38.46;100393.75;5026182;28;20371;-75
2022/06/07 10:06:30;;;;;;;7.25;5.47;;;;;;;29.77;34.81;100392.03;5011033;28;19925;-74
2022/06/07 10:09:26;;;;;;;6.75;4.97;;;;;;;27.68;36.44;100393.19;5030698;28;20033;-75
2022/06/07 10:12:12;;;;;;;6.25;4.97;;;;;;;24.65;42.15;100402.28;5009552;28;20026;-74
2022/06/07 10:14:37;;;;;;;7.47;4.38;;;;;;;23.27;45.13;100406.50;4992936;28;20037;-75
2022/06/07 10:17:09;;;;;;;6.80;4.82;;;;;;;22.85;48.61;100409.31;5011993;28;20095;-74
2022/06/07 10:19:47;;;;;;;7.10;4.25;;;;;;;23.22;49.13;100414.72;5023885;28;20021;-75
2022/06/07 10:22:47;;;;;;;6.88;5.43;;;;;;;26.85;41.11;100418.25;5030873;28;20558;-75
2022/06/07 10:25:23;;;;;;;10.05;6.70;;;;;;;29.15;35.75;100422.19;5032473;28;20132;-75
2022/06/07 10:28:18;;;;;;;9.63;7.40;;;;;;;31.03;32.43;100410.41;4995716;28;20372;-76
2022/06/07 10:30:53;;;;;;;7.00;4.25;;;;;;;30.09;32.18;100404.00;4999446;28;20256;-75
2022/06/07 10:33:43;;;;;;;6.93;4.05;;;;;;;27.40;36.24;100393.88;5029153;28;20033;-75
2022/06/07 10:36:08;;;;;;;6.90;4.80;;;;;;;25.77;39.55;100389.94;5011478;28;20034;-75
2022/06/07 10:39:08;;;;;;;9.80;6.07;;;;;;;24.16;42.75;100381.72;5027452;28;20017;-75
2022/06/07 10:42:01;;;;;;;8.63;7.05;;;;;;;24.84;43.45;100381.31;5031512;28;20562;-75
2022/06/07 10:44:59;;;;;;;9.15;6.15;;;;;;;26.43;39.45;100377.56;5029873;28;20095;-75
2022/06/07 10:47:36;;;;;;;7.13;4.93;;;;;;;29.24;35.30;100369.66;5019731;28;20041;-75
2022/06/07 10:50:29;;;;;;;7.20;5.10;;;;;;;29.43;32.71;100366.78;5016110;28;20033;-75
2022/06/07 10:53:08;;;;;;;8.45;5.50;;;;;;;28.20;36.07;100371.94;5006649;28;20140;-75
2022/06/07 10:55:35;;;;;;;7.38;6.40;;;;;;;27.86;35.67;100356.47;5013200;28;20052;-75
2022/06/07 10:58:43;;;;;;;7.40;5.20;;;;;;;29.28;34.15;100354.91;5026515;28;20041;-75
2022/06/07 11:01:32;;;;;;;5.95;4.30;;;;;;;27.86;35.07;100342.66;5008600;28;20141;-76
2022/06/07 11:04:04;;;;;;;8.20;6.78;;;;;;;26.87;36.87;100330.50;5029516;28;20095;-75
2022/06/07 11:09:39;;;;;;;6.50;4.30;;;;;;;24.50;41.70;100335.22;5044853;28;20475;-75
2022/06/07 11:12:12;;;;;;;5.68;4.95;;;;;;;24.14;42.88;100329.78;5022908;28;20051;-75
2022/06/07 11:14:43;;;;;;;9.73;7.22;;;;;;;24.41;42.62;100325.88;5020823;28;20034;-74
2022/06/07 11:17:26;;;;;;;5.45;4.80;;;;;;;25.16;41.36;100319.59;5027586;28;20033;-74
2022/06/07 11:19:53;;;;;;;11.90;7.68;;;;;;;25.34;40.00;100316.19;5012019;28;20034;-73
2022/06/07 11:22:21;;;;;;;6.68;5.85;;;;;;;25.19;40.93;100308.03;5012480;28;20041;-74
2022/06/07 11:24:59;;;;;;;7.38;6.57;;;;;;;24.88;41.41;100304.59;4996424;28;20036;-74
2022/06/07 11:27:27;;;;;;;5.90;4.45;;;;;;;24.60;41.43;100297.84;5014480;28;20052;-74
2022/06/07 11:30:36;;;;;;;7.75;6.75;;;;;;;24.30;42.42;100286.63;5016123;28;20038;-74
2022/06/07 11:33:02;;;;;;;12.35;9.10;;;;;;;24.18;43.81;100290.78;5019635;28;20052;-75
2022/06/07 11:35:55;;;;;;;9.85;6.15;;;;;;;24.13;44.30;100286.94;5020998;28;20037;-75
2022/06/07 11:38:26;;;;;;;7.90;6.05;;;;;;;24.64;40.78;100271.44;5036618;28;20030;-74
2022/06/07 11:41:36;;;;;;;7.28;5.45;;;;;;;25.84;38.87;100281.16;5006352;28;20037;-74